AFR57GA LFPG-LIMC
Flight info
| Callsign | AFR57GA |
|---|---|
| Flight time | 1h 2m |
| Altitude | 31000 |
| Route | LANVI DCT DEVDI DCT RIPUS DCT GERSA DCT SOSON DCT DEGAD Z424 RIXUV |
| Aircraft | A321/M-SDE3FGHIRWY/LB1 |
Departure
| Time | 2026-05-08 11:35 |
|---|---|
| Airport | Charles de Gaulle International Airport (LFPG) |
Arrival
| Time | 2026-05-08 12:38 |
|---|---|
| Airport | Milan Malpensa International Airport (LIMC) |
| Time | Latitude | Longitude | Altitude | Speed | Heading |
|---|---|---|---|---|---|
| 2026-05-08 11:08 | 49.00732 | 2.57792 | 335 ft | 0 kts | 164° |
| 2026-05-08 11:22 | 49.00733 | 2.57791 | 335 ft | 1 kts | 165° |
| 2026-05-08 11:22 | 49.00747 | 2.57786 | 335 ft | 2 kts | 164° |
| 2026-05-08 11:22 | 49.00761 | 2.57779 | 335 ft | 2 kts | 165° |
| 2026-05-08 11:22 | 49.00776 | 2.57776 | 336 ft | 2 kts | 193° |
| 2026-05-08 11:23 | 49.00790 | 2.57785 | 336 ft | 2 kts | 221° |
| 2026-05-08 11:23 | 49.00799 | 2.57804 | 336 ft | 2 kts | 250° |
| 2026-05-08 11:23 | 49.00802 | 2.57827 | 336 ft | 2 kts | 271° |
| 2026-05-08 11:23 | 49.00802 | 2.57842 | 336 ft | 0 kts | 264° |
| 2026-05-08 11:24 | 49.00802 | 2.57844 | 336 ft | 0 kts | 264° |
| 2026-05-08 11:26 | 49.00802 | 2.57843 | 336 ft | 0 kts | 264° |
| 2026-05-08 11:27 | 49.00802 | 2.57789 | 336 ft | 9 kts | 282° |
| 2026-05-08 11:27 | 49.00850 | 2.57728 | 337 ft | 9 kts | 341° |
| 2026-05-08 11:27 | 49.00880 | 2.57640 | 337 ft | 10 kts | 271° |
| 2026-05-08 11:27 | 49.00875 | 2.57524 | 337 ft | 11 kts | 266° |
| 2026-05-08 11:28 | 49.00869 | 2.57405 | 337 ft | 11 kts | 266° |
| 2026-05-08 11:28 | 49.00862 | 2.57263 | 337 ft | 16 kts | 265° |
| 2026-05-08 11:28 | 49.00851 | 2.57063 | 337 ft | 19 kts | 265° |
| 2026-05-08 11:28 | 49.00840 | 2.56862 | 337 ft | 18 kts | 265° |
| 2026-05-08 11:29 | 49.00830 | 2.56667 | 337 ft | 18 kts | 265° |
| 2026-05-08 11:29 | 49.00818 | 2.56485 | 340 ft | 16 kts | 263° |
| 2026-05-08 11:29 | 49.00800 | 2.56296 | 339 ft | 19 kts | 262° |
| 2026-05-08 11:29 | 49.00780 | 2.56082 | 339 ft | 20 kts | 262° |
| 2026-05-08 11:30 | 49.00760 | 2.55867 | 340 ft | 20 kts | 262° |
| 2026-05-08 11:30 | 49.00741 | 2.55663 | 340 ft | 19 kts | 263° |
| 2026-05-08 11:30 | 49.00728 | 2.55469 | 340 ft | 18 kts | 265° |
| 2026-05-08 11:30 | 49.00708 | 2.55326 | 340 ft | 11 kts | 240° |
| 2026-05-08 11:31 | 49.00658 | 2.55250 | 340 ft | 7 kts | 190° |
| 2026-05-08 11:31 | 49.00580 | 2.55272 | 339 ft | 15 kts | 165° |
| 2026-05-08 11:31 | 49.00472 | 2.55319 | 337 ft | 16 kts | 164° |
| 2026-05-08 11:31 | 49.00362 | 2.55366 | 337 ft | 16 kts | 164° |
| 2026-05-08 11:32 | 49.00249 | 2.55416 | 335 ft | 17 kts | 164° |
| 2026-05-08 11:32 | 49.00128 | 2.55468 | 333 ft | 18 kts | 164° |
| 2026-05-08 11:32 | 49.00010 | 2.55520 | 333 ft | 17 kts | 165° |
| 2026-05-08 11:32 | 48.99901 | 2.55581 | 331 ft | 15 kts | 144° |
| 2026-05-08 11:33 | 48.99844 | 2.55692 | 330 ft | 11 kts | 110° |
| 2026-05-08 11:33 | 48.99813 | 2.55791 | 330 ft | 9 kts | 145° |
| 2026-05-08 11:33 | 48.99764 | 2.55807 | 330 ft | 6 kts | 175° |
| 2026-05-08 11:33 | 48.99725 | 2.55812 | 330 ft | 5 kts | 175° |
| 2026-05-08 11:34 | 48.99683 | 2.55817 | 330 ft | 6 kts | 175° |
| 2026-05-08 11:34 | 48.99633 | 2.55823 | 330 ft | 9 kts | 176° |
| 2026-05-08 11:34 | 48.99601 | 2.55893 | 329 ft | 10 kts | 85° |
| 2026-05-08 11:34 | 48.99616 | 2.56167 | 329 ft | 58 kts | 85° |
| 2026-05-08 11:35 | 48.99669 | 2.57162 | 327 ft | 125 kts | 85° |
| 2026-05-08 11:35 | 48.99755 | 2.58778 | 345 ft | 176 kts | 86° |
| 2026-05-08 11:35 | 48.99844 | 2.60586 | 940 ft | 176 kts | 86° |
| 2026-05-08 11:35 | 48.99943 | 2.62485 | 1508 ft | 184 kts | 86° |
| 2026-05-08 11:36 | 49.00048 | 2.64453 | 2173 ft | 185 kts | 85° |
| 2026-05-08 11:36 | 49.00153 | 2.66446 | 2501 ft | 196 kts | 85° |
| 2026-05-08 11:36 | 49.00267 | 2.68588 | 2801 ft | 210 kts | 85° |
| 2026-05-08 11:36 | 49.00387 | 2.70883 | 3096 ft | 225 kts | 85° |
| 2026-05-08 11:37 | 49.00516 | 2.73378 | 3364 ft | 245 kts | 85° |
| 2026-05-08 11:37 | 49.00626 | 2.76081 | 3710 ft | 261 kts | 91° |
| 2026-05-08 11:37 | 49.00461 | 2.78832 | 4301 ft | 266 kts | 98° |
| 2026-05-08 11:37 | 49.00188 | 2.81624 | 4999 ft | 268 kts | 99° |
| 2026-05-08 11:38 | 48.99911 | 2.84420 | 5673 ft | 270 kts | 98° |
| 2026-05-08 11:38 | 48.99643 | 2.87280 | 6354 ft | 273 kts | 98° |
| 2026-05-08 11:38 | 48.99388 | 2.90119 | 7024 ft | 276 kts | 98° |
| 2026-05-08 11:38 | 48.99137 | 2.93004 | 7698 ft | 278 kts | 97° |
| 2026-05-08 11:39 | 48.98887 | 2.95930 | 8377 ft | 281 kts | 97° |
| 2026-05-08 11:39 | 48.98635 | 2.98904 | 9057 ft | 284 kts | 97° |
| 2026-05-08 11:39 | 48.98381 | 3.01899 | 9720 ft | 287 kts | 97° |
| 2026-05-08 11:39 | 48.98128 | 3.04894 | 10341 ft | 290 kts | 97° |
| 2026-05-08 11:40 | 48.97864 | 3.08020 | 10674 ft | 305 kts | 97° |
| 2026-05-08 11:40 | 48.97583 | 3.11329 | 10957 ft | 321 kts | 97° |
| 2026-05-08 11:40 | 48.97335 | 3.14248 | 11187 ft | 334 kts | 97° |
| 2026-05-08 11:40 | 48.97052 | 3.17556 | 11428 ft | 347 kts | 97° |
| 2026-05-08 11:41 | 48.96734 | 3.21272 | 11696 ft | 360 kts | 97° |
| 2026-05-08 11:41 | 48.96407 | 3.25072 | 12158 ft | 367 kts | 97° |
| 2026-05-08 11:41 | 48.96073 | 3.28950 | 12744 ft | 369 kts | 97° |
| 2026-05-08 11:41 | 48.95739 | 3.32801 | 13301 ft | 372 kts | 97° |
| 2026-05-08 11:42 | 48.95396 | 3.36750 | 13846 ft | 375 kts | 97° |
| 2026-05-08 11:42 | 48.95055 | 3.40671 | 14374 ft | 377 kts | 97° |
| 2026-05-08 11:42 | 48.94684 | 3.44590 | 14882 ft | 380 kts | 101° |
| 2026-05-08 11:42 | 48.93866 | 3.48455 | 15385 ft | 383 kts | 112° |
| 2026-05-08 11:43 | 48.92809 | 3.52156 | 15891 ft | 386 kts | 114° |
| 2026-05-08 11:43 | 48.91716 | 3.55870 | 16367 ft | 389 kts | 114° |
| 2026-05-08 11:43 | 48.90619 | 3.59667 | 16842 ft | 391 kts | 113° |
| 2026-05-08 11:43 | 48.89536 | 3.63487 | 17308 ft | 394 kts | 112° |
| 2026-05-08 11:44 | 48.88469 | 3.67306 | 17758 ft | 397 kts | 113° |
| 2026-05-08 11:44 | 48.87389 | 3.71201 | 18203 ft | 399 kts | 113° |
| 2026-05-08 11:44 | 48.86308 | 3.75124 | 18636 ft | 402 kts | 113° |
| 2026-05-08 11:44 | 48.85230 | 3.79038 | 19055 ft | 404 kts | 113° |
| 2026-05-08 11:45 | 48.84196 | 3.82797 | 19446 ft | 407 kts | 113° |
| 2026-05-08 11:45 | 48.83112 | 3.86734 | 19848 ft | 409 kts | 112° |
| 2026-05-08 11:45 | 48.82005 | 3.90755 | 20249 ft | 412 kts | 112° |
| 2026-05-08 11:45 | 48.80913 | 3.94715 | 20635 ft | 414 kts | 112° |
| 2026-05-08 11:46 | 48.79789 | 3.98786 | 21022 ft | 416 kts | 112° |
| 2026-05-08 11:46 | 48.78663 | 4.02854 | 21402 ft | 419 kts | 112° |
| 2026-05-08 11:46 | 48.77532 | 4.06936 | 21769 ft | 421 kts | 112° |
| 2026-05-08 11:46 | 48.76402 | 4.11009 | 22127 ft | 423 kts | 112° |
| 2026-05-08 11:47 | 48.75251 | 4.15149 | 22483 ft | 426 kts | 112° |
| 2026-05-08 11:47 | 48.74110 | 4.19249 | 22826 ft | 428 kts | 112° |
| 2026-05-08 11:47 | 48.72953 | 4.23395 | 23165 ft | 430 kts | 112° |
| 2026-05-08 11:47 | 48.71781 | 4.27588 | 23498 ft | 432 kts | 112° |
| 2026-05-08 11:48 | 48.70609 | 4.31778 | 23824 ft | 434 kts | 112° |
| 2026-05-08 11:48 | 48.69614 | 4.35323 | 24093 ft | 436 kts | 112° |
| 2026-05-08 11:48 | 48.68423 | 4.39566 | 24410 ft | 438 kts | 112° |
| 2026-05-08 11:48 | 48.67239 | 4.43773 | 24764 ft | 441 kts | 112° |
| 2026-05-08 11:49 | 48.66040 | 4.48028 | 25128 ft | 443 kts | 112° |
| 2026-05-08 11:49 | 48.64829 | 4.52319 | 25475 ft | 445 kts | 112° |
| 2026-05-08 11:49 | 48.63600 | 4.56662 | 25806 ft | 447 kts | 112° |
| 2026-05-08 11:49 | 48.62385 | 4.60951 | 26123 ft | 450 kts | 112° |
| 2026-05-08 11:50 | 48.61155 | 4.65284 | 26435 ft | 452 kts | 114° |
| 2026-05-08 11:50 | 48.59913 | 4.69651 | 26748 ft | 453 kts | 114° |
| 2026-05-08 11:50 | 48.58660 | 4.74049 | 27153 ft | 453 kts | 114° |
| 2026-05-08 11:50 | 48.57409 | 4.78434 | 27591 ft | 451 kts | 114° |
| 2026-05-08 11:51 | 48.56171 | 4.82767 | 28002 ft | 450 kts | 114° |
| 2026-05-08 11:51 | 48.54944 | 4.87050 | 28385 ft | 449 kts | 114° |
| 2026-05-08 11:51 | 48.53692 | 4.91416 | 28764 ft | 449 kts | 114° |
| 2026-05-08 11:51 | 48.52468 | 4.95675 | 29127 ft | 448 kts | 114° |
| 2026-05-08 11:52 | 48.51232 | 4.99970 | 29462 ft | 448 kts | 114° |
| 2026-05-08 11:52 | 48.49989 | 5.04280 | 29742 ft | 449 kts | 114° |
| 2026-05-08 11:52 | 48.48746 | 5.08581 | 30000 ft | 451 kts | 114° |
| 2026-05-08 11:52 | 48.47476 | 5.12965 | 30262 ft | 452 kts | 114° |
| 2026-05-08 11:53 | 48.46220 | 5.17292 | 30520 ft | 453 kts | 114° |
| 2026-05-08 11:53 | 48.44971 | 5.21586 | 30768 ft | 454 kts | 114° |
| 2026-05-08 11:53 | 48.43700 | 5.25952 | 30967 ft | 456 kts | 114° |
| 2026-05-08 11:54 | 48.41111 | 5.34817 | 30990 ft | 468 kts | 114° |
| 2026-05-08 11:54 | 48.38472 | 5.43823 | 30992 ft | 478 kts | 114° |
| 2026-05-08 11:55 | 48.35768 | 5.53012 | 30990 ft | 482 kts | 114° |
| 2026-05-08 11:55 | 48.34431 | 5.57546 | 30985 ft | 463 kts | 114° |
| 2026-05-08 11:55 | 48.33152 | 5.61877 | 30989 ft | 457 kts | 113° |
| 2026-05-08 11:56 | 48.30577 | 5.70579 | 30990 ft | 456 kts | 114° |
| 2026-05-08 11:56 | 48.27990 | 5.79287 | 30991 ft | 456 kts | 114° |
| 2026-05-08 11:57 | 48.25392 | 5.87996 | 30991 ft | 456 kts | 114° |
| 2026-05-08 11:57 | 48.22806 | 5.96638 | 30991 ft | 456 kts | 114° |
| 2026-05-08 11:58 | 48.20202 | 6.05307 | 30991 ft | 456 kts | 114° |
| 2026-05-08 11:58 | 48.17601 | 6.13936 | 30991 ft | 456 kts | 114° |
| 2026-05-08 11:59 | 48.13680 | 6.26885 | 30991 ft | 456 kts | 114° |
| 2026-05-08 11:59 | 48.11055 | 6.35521 | 30991 ft | 456 kts | 114° |
| 2026-05-08 12:00 | 48.08425 | 6.44137 | 30991 ft | 456 kts | 114° |
| 2026-05-08 12:00 | 48.05795 | 6.52728 | 30991 ft | 456 kts | 114° |
| 2026-05-08 12:01 | 48.03158 | 6.61313 | 30992 ft | 456 kts | 114° |
| 2026-05-08 12:01 | 48.00511 | 6.69899 | 30991 ft | 456 kts | 115° |
| 2026-05-08 12:02 | 47.97858 | 6.78471 | 30991 ft | 456 kts | 115° |
| 2026-05-08 12:02 | 47.95184 | 6.87087 | 30991 ft | 456 kts | 115° |
| 2026-05-08 12:03 | 47.92534 | 6.95596 | 30991 ft | 456 kts | 115° |
| 2026-05-08 12:03 | 47.89855 | 7.04170 | 30991 ft | 456 kts | 115° |
| 2026-05-08 12:04 | 47.87173 | 7.12726 | 30991 ft | 456 kts | 115° |
| 2026-05-08 12:04 | 47.84477 | 7.21297 | 30991 ft | 456 kts | 115° |
| 2026-05-08 12:05 | 47.81788 | 7.29821 | 30991 ft | 456 kts | 115° |
| 2026-05-08 12:05 | 47.79092 | 7.38342 | 30991 ft | 456 kts | 115° |
| 2026-05-08 12:06 | 47.76384 | 7.46861 | 30990 ft | 456 kts | 115° |
| 2026-05-08 12:06 | 47.73412 | 7.55115 | 30990 ft | 456 kts | 121° |
| 2026-05-08 12:07 | 47.69832 | 7.62871 | 30991 ft | 456 kts | 126° |
| 2026-05-08 12:07 | 47.66074 | 7.70434 | 30991 ft | 456 kts | 127° |
| 2026-05-08 12:08 | 47.62310 | 7.77995 | 30991 ft | 456 kts | 127° |
| 2026-05-08 12:08 | 47.58529 | 7.85574 | 30991 ft | 456 kts | 127° |
| 2026-05-08 12:09 | 47.54760 | 7.93113 | 30991 ft | 456 kts | 127° |
| 2026-05-08 12:09 | 47.50974 | 8.00663 | 30991 ft | 456 kts | 127° |
| 2026-05-08 12:10 | 47.47208 | 8.08154 | 30991 ft | 456 kts | 127° |
| 2026-05-08 12:10 | 47.43409 | 8.15691 | 30991 ft | 456 kts | 127° |
| 2026-05-08 12:11 | 47.38878 | 8.22101 | 30989 ft | 456 kts | 147° |
| 2026-05-08 12:11 | 47.33490 | 8.27060 | 30992 ft | 456 kts | 148° |
| 2026-05-08 12:12 | 47.28123 | 8.31980 | 30991 ft | 456 kts | 148° |
| 2026-05-08 12:12 | 47.22789 | 8.36921 | 30991 ft | 456 kts | 147° |
| 2026-05-08 12:13 | 47.17421 | 8.41902 | 30991 ft | 456 kts | 147° |
| 2026-05-08 12:13 | 47.12056 | 8.46864 | 30991 ft | 456 kts | 147° |
| 2026-05-08 12:14 | 47.06460 | 8.51022 | 30991 ft | 456 kts | 160° |
| 2026-05-08 12:14 | 47.00354 | 8.53462 | 30991 ft | 456 kts | 169° |
| 2026-05-08 12:15 | 46.94064 | 8.54633 | 30992 ft | 456 kts | 174° |
| 2026-05-08 12:15 | 46.87784 | 8.55492 | 30991 ft | 456 kts | 174° |
| 2026-05-08 12:16 | 46.81498 | 8.56379 | 30991 ft | 456 kts | 174° |
| 2026-05-08 12:16 | 46.75195 | 8.57282 | 30991 ft | 456 kts | 174° |
| 2026-05-08 12:17 | 46.68859 | 8.58194 | 30598 ft | 455 kts | 174° |
| 2026-05-08 12:17 | 46.65738 | 8.58643 | 30087 ft | 452 kts | 174° |
| 2026-05-08 12:17 | 46.62631 | 8.59087 | 29442 ft | 451 kts | 174° |
| 2026-05-08 12:18 | 46.59544 | 8.59528 | 28730 ft | 451 kts | 174° |
| 2026-05-08 12:18 | 46.56410 | 8.59973 | 27940 ft | 452 kts | 174° |
| 2026-05-08 12:18 | 46.53279 | 8.60417 | 27135 ft | 453 kts | 174° |
| 2026-05-08 12:18 | 46.50188 | 8.60854 | 26453 ft | 451 kts | 174° |
| 2026-05-08 12:19 | 46.47055 | 8.61224 | 25716 ft | 450 kts | 179° |
| 2026-05-08 12:19 | 46.44006 | 8.60804 | 24978 ft | 448 kts | 192° |
| 2026-05-08 12:19 | 46.41062 | 8.59386 | 24244 ft | 446 kts | 205° |
| 2026-05-08 12:19 | 46.38356 | 8.57176 | 23636 ft | 441 kts | 211° |
| 2026-05-08 12:20 | 46.35794 | 8.54851 | 23101 ft | 435 kts | 212° |
| 2026-05-08 12:20 | 46.33236 | 8.52508 | 22583 ft | 429 kts | 212° |
| 2026-05-08 12:20 | 46.30760 | 8.50269 | 22088 ft | 424 kts | 210° |
| 2026-05-08 12:20 | 46.28093 | 8.48486 | 21566 ft | 418 kts | 197° |
| 2026-05-08 12:21 | 46.25274 | 8.47677 | 21067 ft | 413 kts | 184° |
| 2026-05-08 12:21 | 46.22435 | 8.47771 | 20579 ft | 408 kts | 174° |
| 2026-05-08 12:21 | 46.19649 | 8.48184 | 20095 ft | 404 kts | 173° |
| 2026-05-08 12:21 | 46.16887 | 8.48630 | 19608 ft | 400 kts | 173° |
| 2026-05-08 12:22 | 46.14130 | 8.49069 | 19117 ft | 397 kts | 172° |
| 2026-05-08 12:22 | 46.11427 | 8.49726 | 18626 ft | 393 kts | 167° |
| 2026-05-08 12:22 | 46.08789 | 8.50727 | 18131 ft | 391 kts | 162° |
| 2026-05-08 12:22 | 46.06270 | 8.52003 | 17646 ft | 388 kts | 159° |
| 2026-05-08 12:23 | 46.03773 | 8.53356 | 17348 ft | 378 kts | 159° |
| 2026-05-08 12:23 | 46.01368 | 8.54668 | 17176 ft | 366 kts | 159° |
| 2026-05-08 12:23 | 45.99020 | 8.55944 | 17012 ft | 354 kts | 159° |
| 2026-05-08 12:23 | 45.96761 | 8.57164 | 16846 ft | 343 kts | 159° |
| 2026-05-08 12:24 | 45.94552 | 8.58353 | 16685 ft | 332 kts | 159° |
| 2026-05-08 12:24 | 45.92427 | 8.59494 | 16535 ft | 321 kts | 159° |
| 2026-05-08 12:24 | 45.90393 | 8.60731 | 16385 ft | 311 kts | 152° |
| 2026-05-08 12:24 | 45.88553 | 8.62321 | 16124 ft | 315 kts | 143° |
| 2026-05-08 12:25 | 45.86819 | 8.64243 | 15713 ft | 315 kts | 140° |
| 2026-05-08 12:25 | 45.85118 | 8.66245 | 15319 ft | 313 kts | 141° |
| 2026-05-08 12:25 | 45.83467 | 8.68194 | 14945 ft | 311 kts | 141° |
| 2026-05-08 12:25 | 45.81781 | 8.70167 | 14566 ft | 309 kts | 141° |
| 2026-05-08 12:26 | 45.80136 | 8.72080 | 14197 ft | 307 kts | 141° |
| 2026-05-08 12:26 | 45.78491 | 8.73985 | 13830 ft | 304 kts | 141° |
| 2026-05-08 12:26 | 45.76818 | 8.75816 | 13461 ft | 303 kts | 145° |
| 2026-05-08 12:26 | 45.75050 | 8.77425 | 13092 ft | 301 kts | 150° |
| 2026-05-08 12:27 | 45.73219 | 8.78859 | 12725 ft | 299 kts | 152° |
| 2026-05-08 12:27 | 45.71382 | 8.80264 | 12359 ft | 298 kts | 152° |
| 2026-05-08 12:27 | 45.69583 | 8.81639 | 12000 ft | 296 kts | 152° |
| 2026-05-08 12:27 | 45.67769 | 8.83028 | 11635 ft | 295 kts | 152° |
| 2026-05-08 12:28 | 45.65965 | 8.84411 | 11272 ft | 293 kts | 152° |
| 2026-05-08 12:28 | 45.64189 | 8.85774 | 11033 ft | 286 kts | 152° |
| 2026-05-08 12:28 | 45.62447 | 8.87057 | 10931 ft | 276 kts | 156° |
| 2026-05-08 12:28 | 45.60691 | 8.87933 | 10735 ft | 268 kts | 166° |
| 2026-05-08 12:29 | 45.58863 | 8.88491 | 10379 ft | 268 kts | 169° |
| 2026-05-08 12:29 | 45.57040 | 8.88971 | 10036 ft | 266 kts | 170° |
| 2026-05-08 12:29 | 45.55212 | 8.89447 | 9697 ft | 265 kts | 169° |
| 2026-05-08 12:29 | 45.53409 | 8.89925 | 9364 ft | 263 kts | 169° |
| 2026-05-08 12:30 | 45.51623 | 8.90405 | 9063 ft | 260 kts | 169° |
| 2026-05-08 12:30 | 45.49891 | 8.90874 | 8971 ft | 256 kts | 169° |
| 2026-05-08 12:30 | 45.48125 | 8.91353 | 8489 ft | 262 kts | 169° |
| 2026-05-08 12:30 | 45.46329 | 8.91842 | 8161 ft | 260 kts | 169° |
| 2026-05-08 12:31 | 45.44572 | 8.92319 | 7883 ft | 256 kts | 169° |
| 2026-05-08 12:31 | 45.42861 | 8.92784 | 7618 ft | 252 kts | 169° |
| 2026-05-08 12:31 | 45.41128 | 8.93179 | 7323 ft | 249 kts | 180° |
| 2026-05-08 12:31 | 45.39496 | 8.92535 | 6934 ft | 248 kts | 216° |
| 2026-05-08 12:32 | 45.38417 | 8.90704 | 6580 ft | 246 kts | 249° |
| 2026-05-08 12:32 | 45.38009 | 8.88345 | 6262 ft | 244 kts | 260° |
| 2026-05-08 12:32 | 45.37723 | 8.85983 | 5934 ft | 243 kts | 260° |
| 2026-05-08 12:32 | 45.37559 | 8.83621 | 5590 ft | 243 kts | 278° |
| 2026-05-08 12:33 | 45.38170 | 8.81410 | 5232 ft | 241 kts | 309° |
| 2026-05-08 12:33 | 45.39485 | 8.79975 | 4927 ft | 238 kts | 337° |
| 2026-05-08 12:33 | 45.41050 | 8.79306 | 4657 ft | 234 kts | 349° |
| 2026-05-08 12:33 | 45.42638 | 8.78913 | 4396 ft | 230 kts | 351° |
| 2026-05-08 12:34 | 45.44204 | 8.78554 | 4125 ft | 226 kts | 351° |
| 2026-05-08 12:34 | 45.45736 | 8.78167 | 3886 ft | 218 kts | 349° |
| 2026-05-08 12:34 | 45.47158 | 8.77781 | 3623 ft | 202 kts | 349° |
| 2026-05-08 12:34 | 45.48492 | 8.77406 | 3320 ft | 192 kts | 349° |
| 2026-05-08 12:35 | 45.49766 | 8.77045 | 3039 ft | 181 kts | 349° |
| 2026-05-08 12:35 | 45.50973 | 8.76704 | 2779 ft | 170 kts | 349° |
| 2026-05-08 12:35 | 45.52084 | 8.76393 | 2573 ft | 158 kts | 349° |
| 2026-05-08 12:35 | 45.53171 | 8.76089 | 2371 ft | 157 kts | 349° |
| 2026-05-08 12:36 | 45.54242 | 8.75791 | 2170 ft | 157 kts | 349° |
| 2026-05-08 12:36 | 45.55316 | 8.75492 | 1967 ft | 155 kts | 349° |
| 2026-05-08 12:36 | 45.56342 | 8.75207 | 1756 ft | 148 kts | 349° |
| 2026-05-08 12:36 | 45.57340 | 8.74930 | 1565 ft | 147 kts | 349° |
| 2026-05-08 12:37 | 45.58345 | 8.74652 | 1370 ft | 147 kts | 349° |
| 2026-05-08 12:37 | 45.59346 | 8.74374 | 1174 ft | 146 kts | 349° |
| 2026-05-08 12:37 | 45.60342 | 8.74099 | 978 ft | 146 kts | 349° |
| 2026-05-08 12:37 | 45.61333 | 8.73825 | 785 ft | 145 kts | 349° |
| 2026-05-08 12:38 | 45.62289 | 8.73559 | 715 ft | 128 kts | 349° |
| 2026-05-08 12:38 | 45.62937 | 8.73379 | 729 ft | 57 kts | 349° |
| 2026-05-08 12:38 | 45.63170 | 8.73225 | 734 ft | 26 kts | 319° |
| 2026-05-08 12:38 | 45.63280 | 8.73032 | 738 ft | 20 kts | 304° |
| 2026-05-08 12:39 | 45.63347 | 8.72888 | 740 ft | 12 kts | 304° |
| 2026-05-08 12:39 | 45.63387 | 8.72781 | 742 ft | 11 kts | 282° |
| 2026-05-08 12:39 | 45.63368 | 8.72663 | 742 ft | 16 kts | 227° |
| 2026-05-08 12:39 | 45.63255 | 8.72549 | 740 ft | 20 kts | 214° |
| 2026-05-08 12:40 | 45.63142 | 8.72438 | 739 ft | 13 kts | 214° |
| 2026-05-08 12:40 | 45.63065 | 8.72354 | 738 ft | 14 kts | 228° |
| 2026-05-08 12:40 | 45.63028 | 8.72227 | 738 ft | 14 kts | 259° |
| 2026-05-08 12:40 | 45.63007 | 8.72097 | 738 ft | 12 kts | 238° |
| 2026-05-08 12:41 | 45.62927 | 8.72069 | 737 ft | 13 kts | 171° |
| 2026-05-08 12:41 | 45.62831 | 8.72094 | 735 ft | 14 kts | 169° |
| 2026-05-08 12:41 | 45.62729 | 8.72122 | 733 ft | 12 kts | 175° |
| 2026-05-08 12:41 | 45.62677 | 8.72035 | 733 ft | 13 kts | 259° |
| 2026-05-08 12:42 | 45.62660 | 8.71910 | 733 ft | 12 kts | 259° |
| 2026-05-08 12:42 | 45.62644 | 8.71787 | 734 ft | 12 kts | 259° |
| 2026-05-08 12:42 | 45.62628 | 8.71669 | 734 ft | 11 kts | 259° |
| 2026-05-08 12:42 | 45.62613 | 8.71602 | 734 ft | 5 kts | 203° |
| 2026-05-08 12:43 | 45.62575 | 8.71599 | 733 ft | 4 kts | 172° |
| 2026-05-08 12:43 | 45.62543 | 8.71608 | 733 ft | 3 kts | 170° |
| 2026-05-08 12:43 | 45.62536 | 8.71609 | 733 ft | 0 kts | 170° |